WXM80 ListenWXM80 Stop

You find our weather info also at:

UK Metoffice

WeatherCloud

Weather Underground

Northeastern Weather Network

AWEKAS

Citizen Weather Observer Program (CWOP)

HAMweather, WeatherForYou, PWS Weather


Weather Underground History page Text

Daily Summary for August 13, 2017 Units:  Metric    English   Both
« Previous Day
Next Day »
Daily Weekly Monthly Yearly Custom
  High: Low: Average:
Temperature: 31.9 °C 20.2 °C 25.6 °C
Dew Point: 22.3 °C 17.8 °C 20.4 °C
Humidity: 97 % 46 % 76 %
Wind Speed: 7.1 km/h 0 km/h 1.4 km/h
Wind Gust: 16.7 km/h - -
Wind:- - West
Pressure: 1014.8 hPa 1008.4 hPa -
Precipitation: 0 mm    
Historical Graphs
 
 
Tabular Data for August 13, 2017
Time Temperature Dew Point Pressure Wind Wind Speed Wind Gust Humidity Rainfall Rate (Hourly)
00:02 23 °C 21.8 °C 1009.7 hPa Calm   5.6 km/h 93 % 0 mm
00:07 23 °C 21.8 °C 1010 hPa SW 2.7 km/h 4.8 km/h 93 % 0 mm
00:13 23.1 °C 21.9 °C 1009.7 hPa Calm   1.9 km/h 93 % 0 mm
00:18 23.1 °C 21.9 °C 1009.7 hPa SE 0.2 km/h 1.9 km/h 93 % 0 mm
00:23 23.1 °C 21.9 °C 1009.7 hPa Calm     93 % 0 mm
00:28 23.1 °C 21.9 °C 1010 hPa WSW 0.3 km/h 3.2 km/h 93 % 0 mm
00:33 23.1 °C 21.9 °C 1010 hPa Calm   3.7 km/h 93 % 0 mm
00:38 23.1 °C 21.9 °C 1009.7 hPa Calm   1.9 km/h 93 % 0 mm
00:43 23.2 °C 21.9 °C 1009.7 hPa Calm     93 % 0 mm
00:48 23.2 °C 21.9 °C 1009.7 hPa Calm   1.9 km/h 93 % 0 mm
00:53 23.2 °C 22 °C 1009.7 hPa SE 0.2 km/h 1.9 km/h 93 % 0 mm
00:58 23.2 °C 22 °C 1009.7 hPa Calm     93 % 0 mm
01:03 23.2 °C 22 °C 1009.4 hPa SSE 1.8 km/h 5.6 km/h 93 % 0 mm
01:08 23.2 °C 22 °C 1009.7 hPa Calm   1.9 km/h 93 % 0 mm
01:13 23.2 °C 22 °C 1009.7 hPa Calm     93 % 0 mm
01:18 23.2 °C 22 °C 1009.7 hPa SE 0.6 km/h 3.7 km/h 93 % 0 mm
01:23 23.2 °C 22 °C 1009.4 hPa Calm   1.9 km/h 93 % 0 mm
01:28 23.2 °C 22 °C 1009.4 hPa Calm     93 % 0 mm
01:33 23.2 °C 21.8 °C 1009.7 hPa SE 0.3 km/h 1.9 km/h 92 % 0 mm
01:38 23.1 °C 21.7 °C 1009.7 hPa Calm     92 % 0 mm
01:43 23.1 °C 21.7 °C 1009.7 hPa SSE 0.3 km/h 1.9 km/h 92 % 0 mm
01:48 23.1 °C 21.9 °C 1009.7 hPa SSE 0.5 km/h 1.6 km/h 93 % 0 mm
01:53 23.1 °C 21.9 °C 1009.4 hPa Calm     93 % 0 mm
01:58 23.1 °C 21.9 °C 1009.4 hPa Calm     93 % 0 mm
02:03 23 °C 21.8 °C 1009.4 hPa Calm     93 % 0 mm
02:08 23 °C 21.8 °C 1009.4 hPa South 0.2 km/h 1.9 km/h 93 % 0 mm
02:13 23 °C 21.8 °C 1009.4 hPa Calm   3.7 km/h 93 % 0 mm
02:18 23 °C 21.8 °C 1009.4 hPa Calm     93 % 0 mm
02:23 23 °C 21.8 °C 1009.4 hPa West 0.3 km/h 1.9 km/h 93 % 0 mm
02:29 23 °C 21.8 °C 1009 hPa West 0.2 km/h 1.9 km/h 93 % 0 mm
02:34 23 °C 22 °C 1009 hPa Calm     94 % 0 mm
02:39 23 °C 22 °C 1009 hPa Calm   1.9 km/h 94 % 0 mm
02:44 22.9 °C 21.9 °C 1009 hPa Calm     94 % 0 mm
02:49 22.9 °C 21.8 °C 1009 hPa Calm     93 % 0 mm
02:54 22.9 °C 21.8 °C 1009 hPa Calm     93 % 0 mm
02:59 22.9 °C 21.7 °C 1009 hPa Calm     93 % 0 mm
03:04 22.8 °C 21.7 °C 1009 hPa Calm     93 % 0 mm
03:09 22.8 °C 21.6 °C 1009 hPa Calm     93 % 0 mm
03:14 22.7 °C 21.6 °C 1008.7 hPa Calm     93 % 0 mm
03:19 22.7 °C 21.5 °C 1009 hPa Calm     93 % 0 mm
03:24 22.7 °C 21.5 °C 1008.7 hPa Calm     93 % 0 mm
03:29 22.6 °C 21.4 °C 1008.7 hPa Calm     93 % 0 mm
03:35 22.5 °C 21.3 °C 1008.7 hPa West 0.3 km/h 1.6 km/h 93 % 0 mm
03:40 22.4 °C 21.3 °C 1008.7 hPa Calm   3.7 km/h 93 % 0 mm
03:45 22.4 °C 21.2 °C 1008.7 hPa Calm     93 % 0 mm
03:50 22.3 °C 21.2 °C 1008.7 hPa Calm     93 % 0 mm
03:55 22.3 °C 21.1 °C 1008.7 hPa West 1.3 km/h 3.7 km/h 93 % 0 mm
04:00 22.3 °C 21.1 °C 1008.7 hPa WSW 1.1 km/h 5.6 km/h 93 % 0 mm
04:05 22.2 °C 21.1 °C 1008.7 hPa Calm   1.9 km/h 93 % 0 mm
04:10 22.2 °C 21.2 °C 1008.4 hPa Calm   1.9 km/h 94 % 0 mm
04:15 22.2 °C 21.2 °C 1008.7 hPa WSW 0.2 km/h 3.7 km/h 94 % 0 mm
04:20 22.2 °C 21.2 °C 1008.7 hPa WSW 0.3 km/h 3.7 km/h 94 % 0 mm
04:25 22.1 °C 21.1 °C 1008.7 hPa Calm     94 % 0 mm
04:30 22.1 °C 21.1 °C 1008.7 hPa Calm     94 % 0 mm
04:35 22.1 °C 21.1 °C 1008.7 hPa Calm   1.9 km/h 94 % 0 mm
04:40 22 °C 21 °C 1008.7 hPa Calm     94 % 0 mm
04:45 21.9 °C 20.9 °C 1008.7 hPa Calm     94 % 0 mm
04:50 21.9 °C 20.9 °C 1008.7 hPa Calm     94 % 0 mm
04:55 21.8 °C 20.8 °C 1008.7 hPa Calm     94 % 0 mm
05:00 21.8 °C 20.8 °C 1008.7 hPa Calm     94 % 0 mm
05:05 21.7 °C 20.7 °C 1008.7 hPa Calm     94 % 0 mm
05:10 21.7 °C 20.7 °C 1009 hPa Calm     94 % 0 mm
05:15 21.7 °C 20.7 °C 1009 hPa Calm     94 % 0 mm
05:20 21.6 °C 20.6 °C 1009 hPa Calm     94 % 0 mm
05:25 21.6 °C 20.6 °C 1009 hPa Calm     94 % 0 mm
05:30 21.6 °C 20.6 °C 1009 hPa WSW 0.2 km/h 1.9 km/h 94 % 0 mm
05:35 21.5 °C 20.5 °C 1009 hPa Calm     94 % 0 mm
05:36 21.5 °C 20.5 °C 1009 hPa Calm   3.2 km/h 94 % 0 mm
05:41 21.5 °C 20.5 °C 1009.4 hPa Calm   1.6 km/h 94 % 0 mm
05:46 21.4 °C 20.4 °C 1009.4 hPa Calm   1.6 km/h 94 % 0 mm
05:51 21.4 °C 20.4 °C 1009.4 hPa Calm     94 % 0 mm
05:56 21.4 °C 20.4 °C 1009.4 hPa Calm     94 % 0 mm
06:01 21.3 °C 20.5 °C 1009.4 hPa Calm     95 % 0 mm
06:06 21.3 °C 20.5 °C 1009.4 hPa Calm     95 % 0 mm
06:11 21.3 °C 20.4 °C 1009.7 hPa Calm     95 % 0 mm
06:16 21.3 °C 20.4 °C 1009.4 hPa WSW 0.5 km/h 3.7 km/h 95 % 0 mm
06:18 21.3 °C 20.4 °C 1009.7 hPa Calm     95 % 0 mm
06:23 21.3 °C 20.4 °C 1009.7 hPa Calm   1.9 km/h 95 % 0 mm
06:28 21.3 °C 20.4 °C 1009.7 hPa Calm   3.7 km/h 95 % 0 mm
06:33 21.3 °C 20.4 °C 1009.7 hPa Calm   1.9 km/h 95 % 0 mm
06:38 21.3 °C 20.7 °C 1009.7 hPa WSW 0.5 km/h 1.9 km/h 96 % 0 mm
06:43 21.3 °C 20.7 °C 1009.7 hPa Calm     96 % 0 mm
06:48 21.4 °C 20.7 °C 1009.7 hPa Calm   1.9 km/h 96 % 0 mm
06:53 21.4 °C 20.7 °C 1009.7 hPa Calm     96 % 0 mm
06:58 21.4 °C 20.8 °C 1009.7 hPa Calm     96 % 0 mm
07:03 21.5 °C 20.8 °C 1009.7 hPa WSW 0.8 km/h 3.7 km/h 96 % 0 mm
07:08 21.6 °C 20.9 °C 1009.7 hPa WNW 2.9 km/h 6.4 km/h 96 % 0 mm
07:13 21.6 °C 20.9 °C 1009.7 hPa West 3.4 km/h 6.4 km/h 96 % 0 mm
07:18 21.8 °C 21.3 °C 1009.7 hPa WNW 1.8 km/h 5.6 km/h 97 % 0 mm
07:23 21.9 °C 21.4 °C 1010 hPa West 2.7 km/h 5.6 km/h 97 % 0 mm
07:28 22 °C 21.5 °C 1010 hPa West 0.5 km/h 3.7 km/h 97 % 0 mm
07:33 22.1 °C 21.6 °C 1010 hPa West 2.7 km/h 4.8 km/h 97 % 0 mm
07:38 22.2 °C 21.7 °C 1010 hPa WNW 1 km/h 5.6 km/h 97 % 0 mm
07:43 22.3 °C 21.8 °C 1010 hPa West 3.5 km/h 5.6 km/h 97 % 0 mm
07:48 22.3 °C 21.8 °C 1010 hPa WNW 1.9 km/h 5.6 km/h 97 % 0 mm
07:53 22.3 °C 21.8 °C 1010 hPa West 4.2 km/h 6.4 km/h 97 % 0 mm
07:58 22.4 °C 21.9 °C 1010 hPa WNW 1 km/h 5.6 km/h 97 % 0 mm
08:03 22.4 °C 21.9 °C 1010.4 hPa WNW 2.1 km/h 7.4 km/h 97 % 0 mm
08:08 22.4 °C 21.9 °C 1010.4 hPa WNW 5.3 km/h 5.6 km/h 97 % 0 mm
08:13 22.4 °C 21.9 °C 1010.4 hPa West 2.3 km/h 8 km/h 97 % 0 mm
08:18 22.4 °C 21.9 °C 1010.4 hPa Calm   1.9 km/h 97 % 0 mm
08:23 22.4 °C 21.8 °C 1010.4 hPa West 1.3 km/h 7.4 km/h 96 % 0 mm
08:29 22.4 °C 21.8 °C 1010.4 hPa NW 0.3 km/h 5.6 km/h 96 % 0 mm
08:34 22.5 °C 21.8 °C 1010.7 hPa WNW 1.3 km/h 3.7 km/h 96 % 0 mm
08:39 22.5 °C 21.8 °C 1010.7 hPa West 3.7 km/h 9.7 km/h 96 % 0 mm
08:44 22.5 °C 21.7 °C 1010.7 hPa WNW 4.2 km/h 7.4 km/h 95 % 0 mm
08:49 22.6 °C 21.7 °C 1010.7 hPa NW 5 km/h 7.4 km/h 95 % 0 mm
08:54 22.6 °C 21.7 °C 1010.7 hPa WNW 0.3 km/h 1.9 km/h 95 % 0 mm
08:59 22.7 °C 21.7 °C 1010.7 hPa WNW 4.2 km/h 9.7 km/h 94 % 0 mm
09:04 22.7 °C 21.7 °C 1010.7 hPa Calm   3.7 km/h 94 % 0 mm
09:05 22.7 °C 21.7 °C 1010.7 hPa WNW 1.6 km/h 8 km/h 94 % 0 mm
09:10 22.8 °C 21.7 °C 1010.7 hPa NW 4.8 km/h 9.3 km/h 93 % 0 mm
09:15 22.9 °C 21.7 °C 1010.7 hPa SW 2.1 km/h 5.6 km/h 93 % 0 mm
09:20 23 °C 21.6 °C 1011.1 hPa NW 2.6 km/h 5.6 km/h 92 % 0 mm
09:25 23.1 °C 21.5 °C 1010.7 hPa NNW 3.2 km/h 7.4 km/h 91 % 0 mm
09:30 23.2 °C 21.4 °C 1010.7 hPa WNW 4.2 km/h 5.6 km/h 90 % 0 mm
09:35 23.3 °C 21.6 °C 1010.7 hPa NNW 3.4 km/h 5.6 km/h 90 % 0 mm
09:40 23.4 °C 21.7 °C 1011.1 hPa WNW 1.9 km/h 5.6 km/h 90 % 0 mm
09:45 23.6 °C 21.6 °C 1010.7 hPa West 4.5 km/h 7.4 km/h 89 % 0 mm
09:50 23.7 °C 21.4 °C 1010.7 hPa WNW 1.1 km/h 5.6 km/h 87 % 0 mm
09:55 24 °C 21.5 °C 1011.1 hPa North 3.4 km/h 7.4 km/h 86 % 0 mm
10:00 24.3 °C 21.6 °C 1010.7 hPa NW 5 km/h 11.1 km/h 85 % 0 mm
10:05 24.7 °C 22 °C 1011.1 hPa NW 0.8 km/h 5.6 km/h 85 % 0 mm
10:10 25.2 °C 21.9 °C 1011.1 hPa WNW 2.6 km/h 5.6 km/h 82 % 0 mm
10:15 25.7 °C 22 °C 1011.1 hPa NNW 0.6 km/h 1.9 km/h 80 % 0 mm
10:20 26.2 °C 21.6 °C 1011.1 hPa NNE 5.6 km/h 7.4 km/h 76 % 0 mm
10:25 26.6 °C 22.1 °C 1011.1 hPa NW 3.1 km/h 5.6 km/h 76 % 0 mm
10:30 27 °C 21.5 °C 1011.1 hPa West 5 km/h 11.3 km/h 72 % 0 mm
10:35 27.4 °C 21.9 °C 1011.1 hPa West 3.7 km/h 11.1 km/h 72 % 0 mm
10:40 27.7 °C 21.9 °C 1011.4 hPa NNW 1.3 km/h 3.7 km/h 71 % 0 mm
10:45 28 °C 21.8 °C 1011.1 hPa WNW 2.9 km/h 6.4 km/h 69 % 0 mm
10:50 28.3 °C 21.4 °C 1011.4 hPa North 5.8 km/h 6.4 km/h 66 % 0 mm
10:55 28.7 °C 21.7 °C 1011.4 hPa North 2.6 km/h 8 km/h 66 % 0 mm
11:00 29 °C 22 °C 1011.4 hPa NW 1.9 km/h 5.6 km/h 66 % 0 mm
11:06 29.2 °C 21.7 °C 1011.4 hPa NNW 4 km/h 7.4 km/h 64 % 0 mm
11:11 29.3 °C 21.8 °C 1011.4 hPa NNW 3.2 km/h 11.3 km/h 64 % 0 mm
11:13 29.4 °C 21.4 °C 1011.4 hPa WNW 5.8 km/h 9.3 km/h 62 % 0 mm
11:18 29.6 °C 22.1 °C 1011.4 hPa North 1.6 km/h 5.6 km/h 64 % 0 mm
11:23 29.8 °C 22.1 °C 1011.4 hPa WNW 4.3 km/h 6.4 km/h 63 % 0 mm
11:28 30.2 °C 21.6 °C 1011.4 hPa WNW 6.1 km/h 7.4 km/h 60 % 0 mm
11:33 30.3 °C 21.9 °C 1011.4 hPa NNW 1.9 km/h 5.6 km/h 61 % 0 mm
11:38 30.4 °C 21.8 °C 1011.4 hPa NW 2.4 km/h 7.4 km/h 60 % 0 mm
11:43 30.6 °C 21.7 °C 1011.4 hPa WNW 4.7 km/h 6.4 km/h 59 % 0 mm
11:49 30.8 °C 21.6 °C 1011.4 hPa NW 2.3 km/h 5.6 km/h 58 % 0 mm
11:54 31 °C 21.8 °C 1011.4 hPa North 2.1 km/h 5.6 km/h 58 % 0 mm
11:59 31.2 °C 20.8 °C 1011.4 hPa WNW 5.6 km/h 7.4 km/h 54 % 0 mm
12:04 31.4 °C 21.6 °C 1011.4 hPa WNW 4 km/h 7.4 km/h 56 % 0 mm
12:09 31.6 °C 22.3 °C 1011.4 hPa WNW 2.9 km/h 5.6 km/h 58 % 0 mm
12:14 31.7 °C 21.5 °C 1011.4 hPa West 4.5 km/h 7.4 km/h 55 % 0 mm
12:19 31.7 °C 20.9 °C 1011.4 hPa NNW 0.2 km/h 5.6 km/h 53 % 0 mm
12:24 31.8 °C 21.6 °C 1011.1 hPa NW 6.3 km/h 11.1 km/h 55 % 0 mm
12:29 31.8 °C 21 °C 1011.1 hPa WNW 1.6 km/h 13 km/h 53 % 0 mm
12:34 31.7 °C 21.3 °C 1011.1 hPa NNE 0.3 km/h 5.6 km/h 54 % 0 mm
12:39 31.7 °C 21.6 °C 1011.1 hPa North 5.5 km/h 11.1 km/h 55 % 0 mm
12:44 31.7 °C 21.2 °C 1011.1 hPa West 5.8 km/h 11.3 km/h 54 % 0 mm
12:49 31.7 °C 20.9 °C 1011.1 hPa NNW 2.6 km/h 5.6 km/h 53 % 0 mm
12:54 31.8 °C 21.6 °C 1011.4 hPa North 2.7 km/h 5.6 km/h 55 % 0 mm
12:59 31.8 °C 22.2 °C 1011.1 hPa West 4.7 km/h 7.4 km/h 57 % 0 mm
13:04 31.9 °C 21.4 °C 1011.4 hPa WNW 6.6 km/h 6.6 km/h 54 % 0 mm
13:09 31.9 °C 21.7 °C 1011.4 hPa WNW 4.7 km/h 9.3 km/h 55 % 0 mm
13:15 31.8 °C 21.4 °C 1011.4 hPa WNW 6.9 km/h 9.3 km/h 54 % 0 mm
13:20 31.9 °C 21.1 °C 1011.4 hPa West 3.2 km/h 9.3 km/h 53 % 0 mm
13:25 31.9 °C 21.1 °C 1011.4 hPa WNW 7.1 km/h 16.7 km/h 53 % 0 mm
13:30 31.8 °C 20.7 °C 1011.4 hPa North 4.8 km/h 9.3 km/h 52 % 0 mm
13:35 31.8 °C 21.3 °C 1011.4 hPa NW 2.1 km/h 11.1 km/h 54 % 0 mm
13:40 31.8 °C 21.4 °C 1011.7 hPa NNE 1.6 km/h 5.6 km/h 54 % 0 mm
13:45 31.8 °C 21.7 °C 1011.4 hPa NW 4.8 km/h 11.1 km/h 55 % 0 mm
13:50 31.8 °C 20.7 °C 1011.7 hPa NNE 4.8 km/h 11.1 km/h 52 % 0 mm
13:55 31.8 °C 20.8 °C 1011.7 hPa NNE 5.1 km/h 7.4 km/h 52 % 0 mm
14:00 31.9 °C 21.7 °C 1011.7 hPa North 2.6 km/h 8 km/h 55 % 0 mm
14:05 31.8 °C 20.4 °C 1011.7 hPa NW 4 km/h 9.3 km/h 51 % 0 mm
14:10 31.7 °C 20.3 °C 1011.7 hPa NNW 1.3 km/h 9.3 km/h 51 % 0 mm
14:15 31.7 °C 21.2 °C 1011.7 hPa North 3.1 km/h 5.6 km/h 54 % 0 mm
14:20 31.7 °C 20.9 °C 1011.7 hPa NNE 3.4 km/h 5.6 km/h 53 % 0 mm
14:25 31.6 °C 20.6 °C 1011.7 hPa NNE 3.2 km/h 5.6 km/h 52 % 0 mm
14:30 31.4 °C 20.3 °C 1011.7 hPa NW 5.3 km/h 7.4 km/h 52 % 0 mm
14:35 31.4 °C 20.4 °C 1011.7 hPa NW 4.3 km/h 5.6 km/h 52 % 0 mm
14:41 31.4 °C 20.1 °C 1011.7 hPa NW 3.2 km/h 9.7 km/h 51 % 0 mm
14:46 31.6 °C 20.5 °C 1011.7 hPa NNW 3.2 km/h 6.4 km/h 52 % 0 mm
14:51 31.6 °C 20.2 °C 1011.7 hPa NNW 3.2 km/h 9.7 km/h 51 % 0 mm
14:56 31.6 °C 20.5 °C 1011.7 hPa NNW 1.6 km/h 9.7 km/h 52 % 0 mm
15:01 31.5 °C 19.8 °C 1011.7 hPa WNW 2.6 km/h 11.1 km/h 50 % 0 mm
15:06 31.6 °C 20.2 °C 1011.7 hPa WNW 6.6 km/h 9.3 km/h 51 % 0 mm
15:11 31.6 °C 19.9 °C 1011.7 hPa NNW 3.2 km/h 7.4 km/h 50 % 0 mm
15:16 31.7 °C 19.9 °C 1011.7 hPa NNE 2.1 km/h 6.4 km/h 50 % 0 mm
15:21 31.6 °C 20.2 °C 1011.7 hPa North 4 km/h 7.4 km/h 51 % 0 mm
15:26 31.5 °C 19.8 °C 1011.7 hPa West 5.1 km/h 7.4 km/h 50 % 0 mm
15:31 31.6 °C 19.9 °C 1011.7 hPa WNW 4.2 km/h 7.4 km/h 50 % 0 mm
15:36 31.5 °C 19.8 °C 1011.7 hPa West 5.8 km/h 9.7 km/h 50 % 0 mm
15:41 31.6 °C 20.2 °C 1011.7 hPa NW 1.3 km/h 5.6 km/h 51 % 0 mm
15:46 31.7 °C 20.3 °C 1011.7 hPa WNW 3.9 km/h 5.6 km/h 51 % 0 mm
15:51 31.7 °C 20.3 °C 1011.7 hPa NW 1.9 km/h 5.6 km/h 51 % 0 mm
15:56 31.7 °C 19.7 °C 1012.1 hPa North 1.3 km/h 5.6 km/h 49 % 0 mm
16:01 31.7 °C 19 °C 1012.1 hPa NW 6.1 km/h 13 km/h 47 % 0 mm
16:06 31.7 °C 19 °C 1012.1 hPa WSW 4.3 km/h 5.6 km/h 47 % 0 mm
16:12 31.7 °C 18.6 °C 1012.1 hPa NW 1.3 km/h 3.7 km/h 46 % 0 mm
16:17 31.6 °C 18.9 °C 1012.1 hPa NE 1.6 km/h 5.6 km/h 47 % 0 mm
16:22 31.5 °C 19.5 °C 1012.1 hPa NW 2.7 km/h 5.6 km/h 49 % 0 mm
16:27 31.3 °C 18.9 °C 1012.1 hPa NW 1.3 km/h 5.6 km/h 48 % 0 mm
16:32 31.2 °C 18.2 °C 1012.1 hPa West 1.4 km/h 7.4 km/h 46 % 0 mm
16:37 31.2 °C 18.9 °C 1012.1 hPa West 6.1 km/h 9.7 km/h 48 % 0 mm
16:42 31.2 °C 18.6 °C 1012.1 hPa WSW 4.3 km/h 5.6 km/h 47 % 0 mm
16:47 31.2 °C 18.6 °C 1012.1 hPa WNW 1.9 km/h 5.6 km/h 47 % 0 mm
16:52 31.1 °C 18.1 °C 1012.1 hPa NNW 1.6 km/h 5.6 km/h 46 % 0 mm
16:57 30.9 °C 19 °C 1012.4 hPa Calm   7.4 km/h 49 % 0 mm
17:02 30.7 °C 18.1 °C 1012.1 hPa WNW 1.6 km/h 3.7 km/h 47 % 0 mm
17:07 30.5 °C 18.2 °C 1012.1 hPa West 3.4 km/h 5.6 km/h 48 % 0 mm
17:12 30.4 °C 17.9 °C 1012.4 hPa WNW 2.3 km/h 5.6 km/h 47 % 0 mm
17:17 30.3 °C 18.1 °C 1012.4 hPa NW 3.1 km/h 5.6 km/h 48 % 0 mm
17:22 30.1 °C 18.2 °C 1012.4 hPa Calm   3.7 km/h 49 % 0 mm
17:27 30 °C 18.1 °C 1012.4 hPa NNW 1.8 km/h 3.7 km/h 49 % 0 mm
17:32 29.8 °C 17.9 °C 1012.4 hPa West 1.6 km/h 5.6 km/h 49 % 0 mm
17:37 29.7 °C 18.1 °C 1012.4 hPa WNW 0.2 km/h 1.9 km/h 50 % 0 mm
17:42 29.5 °C 18.6 °C 1012.4 hPa Calm   3.7 km/h 52 % 0 mm
17:47 29.4 °C 18.2 °C 1012.4 hPa WNW 2.9 km/h 5.6 km/h 51 % 0 mm
17:52 29.2 °C 18.3 °C 1012.8 hPa West 2.3 km/h 5.6 km/h 52 % 0 mm
17:57 29.1 °C 18.5 °C 1012.4 hPa West 0.5 km/h 5.6 km/h 53 % 0 mm
18:02 28.9 °C 18.7 °C 1012.8 hPa West 0.5 km/h 1.9 km/h 54 % 0 mm
18:07 28.8 °C 18.6 °C 1012.8 hPa Calm     54 % 0 mm
18:13 28.7 °C 18.4 °C 1012.8 hPa WSW 3.1 km/h 5.6 km/h 54 % 0 mm
18:18 28.5 °C 18.3 °C 1012.4 hPa WNW 0.6 km/h 5.6 km/h 54 % 0 mm
18:23 28.4 °C 18.2 °C 1012.8 hPa WNW 0.5 km/h 3.7 km/h 54 % 0 mm
18:28 28.3 °C 18.4 °C 1012.8 hPa WNW 0.2 km/h 1.9 km/h 55 % 0 mm
18:33 28.3 °C 18.7 °C 1012.8 hPa WNW 0.2 km/h   56 % 0 mm
18:38 28.2 °C 18.3 °C 1012.8 hPa Calm   1.9 km/h 55 % 0 mm
18:43 28.1 °C 18.4 °C 1012.8 hPa Calm     56 % 0 mm
18:48 27.9 °C 18.6 °C 1012.8 hPa Calm     57 % 0 mm
18:53 27.8 °C 18.8 °C 1012.8 hPa Calm   1.9 km/h 58 % 0 mm
18:58 27.7 °C 18.7 °C 1012.8 hPa WNW 0.6 km/h 1.9 km/h 58 % 0 mm
19:03 27.6 °C 18.6 °C 1012.8 hPa Calm     58 % 0 mm
19:08 27.5 °C 18.8 °C 1012.8 hPa Calm     59 % 0 mm
19:13 27.4 °C 18.9 °C 1012.8 hPa Calm     60 % 0 mm
19:18 27.3 °C 19.1 °C 1012.8 hPa WNW 0.2 km/h 1.9 km/h 61 % 0 mm
19:23 27.2 °C 18.7 °C 1012.8 hPa Calm     60 % 0 mm
19:28 27 °C 19.1 °C 1012.8 hPa Calm     62 % 0 mm
19:33 26.9 °C 19.2 °C 1012.8 hPa Calm     63 % 0 mm
19:38 26.7 °C 19.3 °C 1013.1 hPa Calm     64 % 0 mm
19:43 26.6 °C 19.4 °C 1013.1 hPa Calm     65 % 0 mm
19:48 26.4 °C 19.3 °C 1013.1 hPa Calm     65 % 0 mm
19:53 26.2 °C 19.6 °C 1013.1 hPa Calm     67 % 0 mm
19:58 25.9 °C 19.6 °C 1013.1 hPa Calm     68 % 0 mm
20:03 25.8 °C 19.7 °C 1013.1 hPa Calm     69 % 0 mm
20:08 25.6 °C 19.7 °C 1013.1 hPa Calm     70 % 0 mm
20:13 25.3 °C 19.7 °C 1013.1 hPa Calm     71 % 0 mm
20:18 25.2 °C 19.6 °C 1013.4 hPa Calm   1.9 km/h 71 % 0 mm
20:23 25 °C 19.4 °C 1013.4 hPa WNW 0.2 km/h   71 % 0 mm
20:28 24.8 °C 19.4 °C 1013.4 hPa Calm     72 % 0 mm
20:33 24.6 °C 19.4 °C 1013.4 hPa Calm     73 % 0 mm
20:38 24.4 °C 19.2 °C 1013.4 hPa Calm     73 % 0 mm
20:43 24.2 °C 19.3 °C 1013.4 hPa Calm     74 % 0 mm
20:48 24 °C 19.3 °C 1013.4 hPa Calm     75 % 0 mm
20:53 23.8 °C 18.9 °C 1013.8 hPa Calm     74 % 0 mm
20:58 23.6 °C 18.9 °C 1013.8 hPa Calm   1.6 km/h 75 % 0 mm
21:03 23.4 °C 18.9 °C 1013.8 hPa WNW 0.2 km/h 1.9 km/h 76 % 0 mm
21:08 23.3 °C 18.8 °C 1013.8 hPa Calm     76 % 0 mm
21:09 23.2 °C 18.8 °C 1013.8 hPa Calm     76 % 0 mm
21:14 23.1 °C 18.8 °C 1013.8 hPa Calm   1.9 km/h 77 % 0 mm
21:19 22.9 °C 18.7 °C 1013.8 hPa Calm     77 % 0 mm
21:24 22.8 °C 18.6 °C 1013.8 hPa Calm     77 % 0 mm
21:29 22.7 °C 18.7 °C 1013.8 hPa Calm     78 % 0 mm
21:34 22.6 °C 18.6 °C 1013.8 hPa Calm     78 % 0 mm
21:39 22.5 °C 18.4 °C 1013.8 hPa Calm     78 % 0 mm
21:45 22.4 °C 18.6 °C 1013.8 hPa Calm     79 % 0 mm
21:50 22.3 °C 18.5 °C 1013.8 hPa Calm     79 % 0 mm
21:55 22.2 °C 18.4 °C 1013.8 hPa Calm     79 % 0 mm
22:00 22.1 °C 18.3 °C 1013.8 hPa Calm     79 % 0 mm
22:05 22 °C 18.4 °C 1013.8 hPa Calm     80 % 0 mm
22:10 21.9 °C 18.5 °C 1014.1 hPa Calm   1.9 km/h 81 % 0 mm
22:15 21.8 °C 18.6 °C 1014.1 hPa WNW 0.2 km/h 1.9 km/h 82 % 0 mm
22:20 21.7 °C 18.3 °C 1014.1 hPa Calm     81 % 0 mm
22:25 21.6 °C 18.3 °C 1014.1 hPa Calm     82 % 0 mm
22:30 21.5 °C 18.3 °C 1014.1 hPa Calm     82 % 0 mm
22:35 21.4 °C 18.2 °C 1014.1 hPa Calm     82 % 0 mm
22:40 21.3 °C 18.1 °C 1014.1 hPa Calm     82 % 0 mm
22:45 21.2 °C 18 °C 1014.1 hPa Calm     82 % 0 mm
22:50 21.2 °C 18.2 °C 1014.1 hPa Calm     83 % 0 mm
22:55 21.1 °C 18.1 °C 1014.4 hPa Calm     83 % 0 mm
23:00 20.9 °C 17.9 °C 1014.4 hPa Calm     83 % 0 mm
23:05 20.9 °C 18.1 °C 1014.4 hPa Calm     84 % 0 mm
23:10 20.8 °C 17.8 °C 1014.4 hPa Calm     83 % 0 mm
23:15 20.7 °C 17.9 °C 1014.4 hPa Calm     84 % 0 mm
23:20 20.6 °C 18 °C 1014.4 hPa Calm     85 % 0 mm
23:25 20.6 °C 17.9 °C 1014.4 hPa Calm     85 % 0 mm
23:30 20.5 °C 17.9 °C 1014.4 hPa Calm     85 % 0 mm
23:35 20.4 °C 18 °C 1014.8 hPa Calm     86 % 0 mm
23:41 20.3 °C 17.9 °C 1014.8 hPa Calm     86 % 0 mm
23:46 20.3 °C 17.9 °C 1014.8 hPa Calm     86 % 0 mm
23:51 20.3 °C 17.8 °C 1014.8 hPa Calm     86 % 0 mm
23:56 20.2 °C 17.8 °C 1014.8 hPa Calm     86 % 0 mm
Crab Meadow Weather
Compliments of Weather Underground - 3 mb

Script developed by  Jim McMurry - jmcmurry@mwt.net Adapted for the template by  Wim van der Kuil - Leuven-Template.eu

Weather Terms: Funnel Cloud - A rotating column of air, extending from a towering cumulus or cumulonimbus cloud, that is not in contact with the ground.